Cassiopeia Leader — 7JZI — position and weather

sailwx.info

Track history (hours):
 
Tides and Currents Weather Stations Pressure Air Temp Water Temp Dewpoint Dewpoint Depression Visibility Wind Speed Wind Dir Waves Ship Positions

Cassiopeia Leader

Last reported at 2018-Feb-17 00:52 UTC. Time now 2018-Feb-20 23:49 UTC.
Position N 42°13' W 069°59'.

Length 200 m; draft 7.6 m.

Type: Cargo ship. MMSI: 431013000.

Date/timePositionNaut miles runAvg speedWind from/ knotsBaromVisibWave heightAir tempDewpointWater temp
2018-Feb-17 00:52N 42°13' W 069°59'3 9.4
2018-Feb-17 00:30N 42°16' W 070°01'4 8.7
2018-Feb-17 00:00N 42°18' W 070°07'4 9.0
2018-Feb-16 23:30N 42°18' W 070°13'5 9.1
2018-Feb-16 23:00N 42°18' W 070°19'5 9.3
2018-Feb-16 22:30N 42°19' W 070°25'5 9.3
2018-Feb-16 21:59N 42°19' W 070°32'5 9.4
2018-Feb-16 21:30N 42°20' W 070°38'5 9.4
2018-Feb-16 21:00N 42°21' W 070°44'5 9.6
2018-Feb-16 20:30N 42°23' W 070°50'510.4
2018-Feb-16 20:00N 42°21' W 070°56'510.5
2018-Feb-16 19:30N 42°22' W 071°03'1 1.3
2018-Feb-16 18:58N 42°23' W 071°03'0 0.0
2018-Feb-16 18:28N 42°23' W 071°03'0 0.0
2018-Feb-16 17:58N 42°23' W 071°03'0 0.0
2018-Feb-16 17:28N 42°23' W 071°03'0 0.0
2018-Feb-16 16:58N 42°23' W 071°03'0 0.0
2018-Feb-16 16:25N 42°23' W 071°03'0 0.0
2018-Feb-16 15:58N 42°23' W 071°03'0 0.0
2018-Feb-16 15:28N 42°23' W 071°03'0 0.0
2018-Feb-16 14:58N 42°23' W 071°03'0 0.0
2018-Feb-16 14:28N 42°23' W 071°03'0 0.0
2018-Feb-16 13:58N 42°23' W 071°03'0 0.0
2018-Feb-16 13:28N 42°23' W 071°03'0 0.0
2018-Feb-16 12:58N 42°23' W 071°03'0 0.0
2018-Feb-16 12:28N 42°23' W 071°03'0 0.0
2018-Feb-16 11:58N 42°23' W 071°03'0 0.0
2018-Feb-16 11:28N 42°23' W 071°03'0 0.0
2018-Feb-16 11:00N 42°23' W 071°03'1 1.3
2018-Feb-16 10:31N 42°22' W 071°03'4 8.1
2018-Feb-16 10:00N 42°20' W 070°58'5 9.7
2018-Feb-16 09:31N 42°23' W 070°54'2 4.5
2018-Feb-16 09:01N 42°24' W 070°51'4 8.2
2018-Feb-16 08:31N 42°23' W 070°45'4 8.9
2018-Feb-16 08:01N 42°19' W 070°42'4 8.9
2018-Feb-16 07:30N 42°16' W 070°38'4 8.8
2018-Feb-16 07:00N 42°13' W 070°34'4 8.5
2018-Feb-16 06:30N 42°09' W 070°31'5 8.7
2018-Feb-16 05:59N 42°05' W 070°30'4 8.3
2018-Feb-16 05:27N 42°01' W 070°26'4 8.6
2018-Feb-16 05:01N 41°59' W 070°22'5 8.6
2018-Feb-16 04:22N 41°56' W 070°16'1 1.6
2018-Feb-16 03:41N 41°55' W 070°15'1 1.7
2018-Feb-16 03:23N 41°55' W 070°16'2 1.7
2018-Feb-16 02:01N 41°56' W 070°19'0 1.8
2018-Feb-16 02:00N 41°56' W 070°19'1 1.8
2018-Feb-16 01:30N 41°56' W 070°20'1 1.8
2018-Feb-16 01:00N 41°57' W 070°21'1 1.6
2018-Feb-16 00:30N 41°57' W 070°22'1 1.1
2018-Feb-16 00:00N 41°57' W 070°22'0 0.8
2018-Feb-15 23:30N 41°57' W 070°23'0 0.8
2018-Feb-15 23:00N 41°57' W 070°23'2 3.0
2018-Feb-15 22:21N 41°55' W 070°23'5211.3
2018-Feb-15 17:43N 41°27' W 071°22'311.3
2018-Feb-15 17:30N 41°29' W 071°21'612.5
2018-Feb-15 17:00N 41°35' W 071°23'2 4.5
2018-Feb-15 16:28N 41°37' W 071°24'0 0.0
2018-Feb-15 15:58N 41°37' W 071°24'0 0.0
2018-Feb-15 15:22N 41°37' W 071°24'0 0.0
2018-Feb-15 14:58N 41°37' W 071°24'0 0.0
2018-Feb-15 14:28N 41°37' W 071°24'0 0.0
2018-Feb-15 13:58N 41°37' W 071°24'0 0.0
2018-Feb-15 13:28N 41°37' W 071°24'0 0.0
2018-Feb-15 12:58N 41°37' W 071°24'0 0.0
2018-Feb-15 12:28N 41°37' W 071°24'0 0.0
2018-Feb-15 11:58N 41°37' W 071°24'0 0.1
2018-Feb-15 11:30N 41°37' W 071°24'3 5.8
2018-Feb-15 11:00N 41°35' W 071°22'712.0
2018-Feb-15 10:27N 41°28' W 071°22'165 9.5
2018-Feb-14 17:10N 39°21' W 073°39'5513.2
2018-Feb-14 13:01N 38°46' W 074°33'213.1
2018-Feb-14 12:52N 38°46' W 074°36'23 8.5
2018-Feb-14 10:10N 38°50' W 075°05'1 8.3
2018-Feb-14 10:00N 38°51' W 075°05'713.7
2018-Feb-14 09:30N 38°58' W 075°07'715.0
2018-Feb-14 09:01N 39°04' W 075°11'815.7
2018-Feb-14 08:31N 39°11' W 075°16'917.1
2018-Feb-14 08:01N 39°18' W 075°23'918.4
2018-Feb-14 07:30N 39°25' W 075°31'714.8
2018-Feb-14 07:00N 39°32' W 075°33'4 8.5
2018-Feb-14 06:30N 39°33' W 075°38'5 9.5
2018-Feb-14 06:00N 39°32' W 075°44'4 7.8
2018-Feb-14 05:30N 39°32' W 075°49'3 5.8
2018-Feb-14 05:00N 39°31' W 075°53'4 9.0
2018-Feb-14 04:30N 39°29' W 075°58'510.2
2018-Feb-14 04:00N 39°25' W 076°02'612.6
2018-Feb-14 03:30N 39°22' W 076°09'611.1
2018-Feb-14 03:00N 39°17' W 076°14'611.3
2018-Feb-14 02:30N 39°12' W 076°16'510.1
2018-Feb-14 02:00N 39°09' W 076°21'510.9
2018-Feb-14 01:30N 39°11' W 076°28'4 8.1
2018-Feb-14 01:00N 39°14' W 076°32'1 2.1
2018-Feb-14 00:30N 39°14' W 076°32'0 0.0
2018-Feb-14 00:00N 39°14' W 076°32'0 0.0
2018-Feb-13 23:27N 39°14' W 076°32'0 0.0
2018-Feb-13 23:00N 39°14' W 076°32'0 0.0
2018-Feb-13 22:30N 39°14' W 076°32'0 0.0
2018-Feb-13 22:00N 39°14' W 076°32'0 0.0
2018-Feb-13 21:30N 39°14' W 076°32'0 0.0
2018-Feb-13 21:00N 39°14' W 076°32'0 0.0
2018-Feb-13 20:30N 39°14' W 076°32'0 0.0
2018-Feb-13 20:00N 39°14' W 076°32'0 0.0
2018-Feb-13 19:30N 39°14' W 076°32'0 0.0
2018-Feb-13 19:00N 39°14' W 076°32'0 0.0
2018-Feb-13 18:29N 39°14' W 076°32'0 0.0
2018-Feb-13 17:59N 39°14' W 076°32'0 0.0
2018-Feb-13 17:29N 39°14' W 076°32'0 0.0
2018-Feb-13 16:59N 39°14' W 076°32'0 0.0
2018-Feb-13 16:29N 39°14' W 076°32'0 0.0
2018-Feb-13 15:59N 39°14' W 076°32'0 0.0
2018-Feb-13 15:29N 39°14' W 076°32'0 0.0
2018-Feb-13 14:59N 39°14' W 076°32'0 0.0
2018-Feb-13 14:29N 39°14' W 076°32'0 0.0
2018-Feb-13 13:59N 39°14' W 076°32'0 0.0
2018-Feb-13 13:29N 39°14' W 076°32'0 0.0
2018-Feb-13 12:59N 39°14' W 076°32'0 0.0
2018-Feb-13 12:29N 39°14' W 076°32'0 0.0
2018-Feb-13 11:59N 39°14' W 076°32'0 0.0
2018-Feb-13 11:29N 39°14' W 076°32'0 0.0
2018-Feb-13 10:59N 39°14' W 076°32'0 0.0
2018-Feb-13 10:29N 39°14' W 076°32'0 0.0
2018-Feb-13 09:59N 39°14' W 076°32'0 0.0
2018-Feb-13 09:29N 39°14' W 076°32'0 0.0
2018-Feb-13 08:59N 39°14' W 076°32'0 0.0
2018-Feb-13 08:29N 39°14' W 076°32'0 0.0
2018-Feb-13 07:59N 39°14' W 076°32'0 0.0
2018-Feb-13 07:29N 39°14' W 076°32'0 0.0
2018-Feb-13 06:59N 39°14' W 076°32'0 0.0
2018-Feb-13 06:29N 39°14' W 076°32'0 0.0
2018-Feb-13 05:59N 39°14' W 076°32'0 0.0
2018-Feb-13 05:29N 39°14' W 076°32'0 0.0
2018-Feb-13 04:59N 39°14' W 076°32'0 0.0
2018-Feb-13 04:29N 39°14' W 076°32'0 0.0
2018-Feb-13 03:59N 39°14' W 076°32'0 0.0
2018-Feb-13 03:29N 39°14' W 076°32'0 0.0
2018-Feb-13 02:59N 39°14' W 076°32'0 0.0
2018-Feb-13 02:29N 39°14' W 076°32'0 0.0
2018-Feb-13 01:59N 39°14' W 076°32'0 0.0
2018-Feb-13 01:29N 39°14' W 076°32'0 0.0
2018-Feb-13 00:59N 39°14' W 076°32'0 0.0
2018-Feb-13 00:29N 39°14' W 076°32'0 0.0
2018-Feb-12 23:59N 39°14' W 076°32'0 0.0
2018-Feb-12 23:29N 39°14' W 076°32'0 0.0
2018-Feb-12 22:59N 39°14' W 076°32'0 0.0
2018-Feb-12 22:29N 39°14' W 076°32'0 0.0
2018-Feb-12 21:59N 39°14' W 076°32'0 0.0
2018-Feb-12 21:29N 39°14' W 076°32'0 0.0
2018-Feb-12 20:59N 39°14' W 076°32'0 0.0
2018-Feb-12 20:29N 39°14' W 076°32'0 0.0
2018-Feb-12 19:59N 39°14' W 076°32'0 0.0
2018-Feb-12 19:29N 39°14' W 076°32'0 0.0
2018-Feb-12 18:59N 39°14' W 076°32'0 0.0
2018-Feb-12 18:30N 39°14' W 076°32'0 0.0
2018-Feb-12 18:00N 39°14' W 076°32'0 0.0
2018-Feb-12 17:30N 39°14' W 076°32'0 0.0
2018-Feb-12 17:00N 39°14' W 076°32'0 0.0
2018-Feb-12 16:30N 39°14' W 076°32'0 0.0
2018-Feb-12 16:00N 39°14' W 076°32'0 0.0
2018-Feb-12 15:30N 39°14' W 076°32'0 0.0
2018-Feb-12 15:00N 39°14' W 076°32'0 0.0
2018-Feb-12 14:30N 39°14' W 076°32'0 0.0
2018-Feb-12 14:00N 39°14' W 076°32'0 0.0
2018-Feb-12 13:30N 39°14' W 076°32'0 0.0
2018-Feb-12 13:00N 39°14' W 076°32'0 0.0
2018-Feb-12 12:30N 39°14' W 076°32'0 0.0
2018-Feb-12 12:00N 39°14' W 076°32'0 0.0
2018-Feb-12 11:30N 39°14' W 076°32'0 0.0
2018-Feb-12 11:00N 39°14' W 076°32'0 0.0
2018-Feb-12 10:30N 39°14' W 076°32'0 0.0
2018-Feb-12 10:00N 39°14' W 076°32'0 0.0
2018-Feb-12 09:30N 39°14' W 076°32'0 0.0
2018-Feb-12 09:00N 39°14' W 076°32'0 0.0
2018-Feb-12 08:30N 39°14' W 076°32'0 0.0
2018-Feb-12 08:00N 39°14' W 076°32'0 0.0
2018-Feb-12 07:30N 39°14' W 076°32'0 0.0
2018-Feb-12 07:00N 39°14' W 076°32'0 0.0
2018-Feb-12 06:30N 39°14' W 076°32'0 0.0
2018-Feb-12 06:00N 39°14' W 076°32'0 0.0
2018-Feb-12 05:30N 39°14' W 076°32'0 0.0
2018-Feb-12 05:00N 39°14' W 076°32'0 0.0
2018-Feb-12 04:30N 39°14' W 076°32'0 0.0
2018-Feb-12 04:00N 39°14' W 076°32'0 0.0
2018-Feb-12 03:30N 39°14' W 076°32'0 0.0
2018-Feb-12 03:00N 39°14' W 076°32'0 0.0
2018-Feb-12 02:30N 39°14' W 076°32'0 0.0
2018-Feb-12 02:00N 39°14' W 076°32'0 0.0
2018-Feb-12 01:30N 39°14' W 076°32'0 0.0
2018-Feb-12 01:00N 39°14' W 076°32'0 0.0
2018-Feb-12 00:30N 39°14' W 076°32'0 0.0
2018-Feb-12 00:00N 39°14' W 076°32'0 1.0
2018-Feb-11 23:31N 39°14' W 076°32'2 3.5
2018-Feb-11 23:01N 39°13' W 076°31'5 9.1
2018-Feb-11 22:30N 39°11' W 076°26'511.0
2018-Feb-11 22:00N 39°05' W 076°24'611.4
2018-Feb-11 21:31N 38°60' W 076°23'611.7
2018-Feb-11 21:01N 38°54' W 076°24'1 2.8
2018-Feb-11 20:29N 38°53' W 076°25'0 0.1
2018-Feb-11 19:59N 38°53' W 076°25'0 0.0
2018-Feb-11 19:29N 38°53' W 076°25'0 0.1
2018-Feb-11 19:00N 38°53' W 076°25'1 2.2
2018-Feb-11 18:30N 38°52' W 076°24'713.4
2018-Feb-11 18:00N 38°45' W 076°26'3617.1
2018-Feb-11 15:52N 38°10' W 076°14'5416.4
2018-Feb-11 12:36N 37°17' W 076°07'317.5
2018-Feb-11 12:26N 37°14' W 076°08'816.7
2018-Feb-11 11:56N 37°06' W 076°07'716.5
2018-Feb-11 11:28N 36°60' W 076°01'510.5
2018-Feb-11 11:00N 36°56' W 075°57'4 8.6
2018-Feb-11 10:30N 36°53' W 075°53'4 8.5
2018-Feb-11 10:00N 36°51' W 075°48'  
Track history (hours):
 
Tides and Currents Weather Stations Pressure Air Temp Water Temp Dewpoint Dewpoint Depression Visibility Wind Speed Wind Dir Waves Ship Positions

Cassiopeia Leader

Last reported at 2018-Feb-17 00:52 UTC. Time now 2018-Feb-20 23:49 UTC.
Position N 42°13' W 069°59'.

Length 200 m; draft 7.6 m.

Type: Cargo ship. MMSI: 431013000.

Date/timePositionNaut miles runAvg speedWind from/ knotsBaromVisibWave heightAir tempDewpointWater temp
2018-Feb-17 00:52N 42°13' W 069°59'3 9.4
2018-Feb-17 00:30N 42°16' W 070°01'4 8.7
2018-Feb-17 00:00N 42°18' W 070°07'4 9.0
2018-Feb-16 23:30N 42°18' W 070°13'5 9.1
2018-Feb-16 23:00N 42°18' W 070°19'5 9.3
2018-Feb-16 22:30N 42°19' W 070°25'5 9.3
2018-Feb-16 21:59N 42°19' W 070°32'5 9.4
2018-Feb-16 21:30N 42°20' W 070°38'5 9.4
2018-Feb-16 21:00N 42°21' W 070°44'5 9.6
2018-Feb-16 20:30N 42°23' W 070°50'510.4
2018-Feb-16 20:00N 42°21' W 070°56'510.5
2018-Feb-16 19:30N 42°22' W 071°03'1 1.3
2018-Feb-16 18:58N 42°23' W 071°03'0 0.0
2018-Feb-16 18:28N 42°23' W 071°03'0 0.0
2018-Feb-16 17:58N 42°23' W 071°03'0 0.0
2018-Feb-16 17:28N 42°23' W 071°03'0 0.0
2018-Feb-16 16:58N 42°23' W 071°03'0 0.0
2018-Feb-16 16:25N 42°23' W 071°03'0 0.0
2018-Feb-16 15:58N 42°23' W 071°03'0 0.0
2018-Feb-16 15:28N 42°23' W 071°03'0 0.0
2018-Feb-16 14:58N 42°23' W 071°03'0 0.0
2018-Feb-16 14:28N 42°23' W 071°03'0 0.0
2018-Feb-16 13:58N 42°23' W 071°03'0 0.0
2018-Feb-16 13:28N 42°23' W 071°03'0 0.0
2018-Feb-16 12:58N 42°23' W 071°03'0 0.0
2018-Feb-16 12:28N 42°23' W 071°03'0 0.0
2018-Feb-16 11:58N 42°23' W 071°03'0 0.0
2018-Feb-16 11:28N 42°23' W 071°03'0 0.0
2018-Feb-16 11:00N 42°23' W 071°03'1 1.3
2018-Feb-16 10:31N 42°22' W 071°03'4 8.1
2018-Feb-16 10:00N 42°20' W 070°58'5 9.7
2018-Feb-16 09:31N 42°23' W 070°54'2 4.5
2018-Feb-16 09:01N 42°24' W 070°51'4 8.2
2018-Feb-16 08:31N 42°23' W 070°45'4 8.9
2018-Feb-16 08:01N 42°19' W 070°42'4 8.9
2018-Feb-16 07:30N 42°16' W 070°38'4 8.8
2018-Feb-16 07:00N 42°13' W 070°34'4 8.5
2018-Feb-16 06:30N 42°09' W 070°31'5 8.7
2018-Feb-16 05:59N 42°05' W 070°30'4 8.3
2018-Feb-16 05:27N 42°01' W 070°26'4 8.6
2018-Feb-16 05:01N 41°59' W 070°22'5 8.6
2018-Feb-16 04:22N 41°56' W 070°16'1 1.6
2018-Feb-16 03:41N 41°55' W 070°15'1 1.7
2018-Feb-16 03:23N 41°55' W 070°16'2 1.7
2018-Feb-16 02:01N 41°56' W 070°19'0 1.8
2018-Feb-16 02:00N 41°56' W 070°19'1 1.8
2018-Feb-16 01:30N 41°56' W 070°20'1 1.8
2018-Feb-16 01:00N 41°57' W 070°21'1 1.6
2018-Feb-16 00:30N 41°57' W 070°22'1 1.1
2018-Feb-16 00:00N 41°57' W 070°22'0 0.8
2018-Feb-15 23:30N 41°57' W 070°23'0 0.8
2018-Feb-15 23:00N 41°57' W 070°23'2 3.0
2018-Feb-15 22:21N 41°55' W 070°23'5211.3
2018-Feb-15 17:43N 41°27' W 071°22'311.3
2018-Feb-15 17:30N 41°29' W 071°21'612.5
2018-Feb-15 17:00N 41°35' W 071°23'2 4.5
2018-Feb-15 16:28N 41°37' W 071°24'0 0.0
2018-Feb-15 15:58N 41°37' W 071°24'0 0.0
2018-Feb-15 15:22N 41°37' W 071°24'0 0.0
2018-Feb-15 14:58N 41°37' W 071°24'0 0.0
2018-Feb-15 14:28N 41°37' W 071°24'0 0.0
2018-Feb-15 13:58N 41°37' W 071°24'0 0.0
2018-Feb-15 13:28N 41°37' W 071°24'0 0.0
2018-Feb-15 12:58N 41°37' W 071°24'0 0.0
2018-Feb-15 12:28N 41°37' W 071°24'0 0.0
2018-Feb-15 11:58N 41°37' W 071°24'0 0.1
2018-Feb-15 11:30N 41°37' W 071°24'3 5.8
2018-Feb-15 11:00N 41°35' W 071°22'712.0
2018-Feb-15 10:27N 41°28' W 071°22'165 9.5
2018-Feb-14 17:10N 39°21' W 073°39'5513.2
2018-Feb-14 13:01N 38°46' W 074°33'213.1
2018-Feb-14 12:52N 38°46' W 074°36'23 8.5
2018-Feb-14 10:10N 38°50' W 075°05'1 8.3
2018-Feb-14 10:00N 38°51' W 075°05'713.7
2018-Feb-14 09:30N 38°58' W 075°07'715.0
2018-Feb-14 09:01N 39°04' W 075°11'815.7
2018-Feb-14 08:31N 39°11' W 075°16'917.1
2018-Feb-14 08:01N 39°18' W 075°23'918.4
2018-Feb-14 07:30N 39°25' W 075°31'714.8
2018-Feb-14 07:00N 39°32' W 075°33'4 8.5
2018-Feb-14 06:30N 39°33' W 075°38'5 9.5
2018-Feb-14 06:00N 39°32' W 075°44'4 7.8
2018-Feb-14 05:30N 39°32' W 075°49'3 5.8
2018-Feb-14 05:00N 39°31' W 075°53'4 9.0
2018-Feb-14 04:30N 39°29' W 075°58'510.2
2018-Feb-14 04:00N 39°25' W 076°02'612.6
2018-Feb-14 03:30N 39°22' W 076°09'611.1
2018-Feb-14 03:00N 39°17' W 076°14'611.3
2018-Feb-14 02:30N 39°12' W 076°16'510.1
2018-Feb-14 02:00N 39°09' W 076°21'510.9
2018-Feb-14 01:30N 39°11' W 076°28'4 8.1
2018-Feb-14 01:00N 39°14' W 076°32'1 2.1
2018-Feb-14 00:30N 39°14' W 076°32'0 0.0
2018-Feb-14 00:00N 39°14' W 076°32'0 0.0
2018-Feb-13 23:27N 39°14' W 076°32'0 0.0
2018-Feb-13 23:00N 39°14' W 076°32'0 0.0
2018-Feb-13 22:30N 39°14' W 076°32'0 0.0
2018-Feb-13 22:00N 39°14' W 076°32'0 0.0
2018-Feb-13 21:30N 39°14' W 076°32'0 0.0
2018-Feb-13 21:00N 39°14' W 076°32'0 0.0
2018-Feb-13 20:30N 39°14' W 076°32'0 0.0
2018-Feb-13 20:00N 39°14' W 076°32'0 0.0
2018-Feb-13 19:30N 39°14' W 076°32'0 0.0
2018-Feb-13 19:00N 39°14' W 076°32'0 0.0
2018-Feb-13 18:29N 39°14' W 076°32'0 0.0
2018-Feb-13 17:59N 39°14' W 076°32'0 0.0
2018-Feb-13 17:29N 39°14' W 076°32'0 0.0
2018-Feb-13 16:59N 39°14' W 076°32'0 0.0
2018-Feb-13 16:29N 39°14' W 076°32'0 0.0
2018-Feb-13 15:59N 39°14' W 076°32'0 0.0
2018-Feb-13 15:29N 39°14' W 076°32'0 0.0
2018-Feb-13 14:59N 39°14' W 076°32'0 0.0
2018-Feb-13 14:29N 39°14' W 076°32'0 0.0
2018-Feb-13 13:59N 39°14' W 076°32'0 0.0
2018-Feb-13 13:29N 39°14' W 076°32'0 0.0
2018-Feb-13 12:59N 39°14' W 076°32'0 0.0
2018-Feb-13 12:29N 39°14' W 076°32'0 0.0
2018-Feb-13 11:59N 39°14' W 076°32'0 0.0
2018-Feb-13 11:29N 39°14' W 076°32'0 0.0
2018-Feb-13 10:59N 39°14' W 076°32'0 0.0
2018-Feb-13 10:29N 39°14' W 076°32'0 0.0
2018-Feb-13 09:59N 39°14' W 076°32'0 0.0
2018-Feb-13 09:29N 39°14' W 076°32'0 0.0
2018-Feb-13 08:59N 39°14' W 076°32'0 0.0
2018-Feb-13 08:29N 39°14' W 076°32'0 0.0
2018-Feb-13 07:59N 39°14' W 076°32'0 0.0
2018-Feb-13 07:29N 39°14' W 076°32'0 0.0
2018-Feb-13 06:59N 39°14' W 076°32'0 0.0
2018-Feb-13 06:29N 39°14' W 076°32'0 0.0
2018-Feb-13 05:59N 39°14' W 076°32'0 0.0
2018-Feb-13 05:29N 39°14' W 076°32'0 0.0
2018-Feb-13 04:59N 39°14' W 076°32'0 0.0
2018-Feb-13 04:29N 39°14' W 076°32'0 0.0
2018-Feb-13 03:59N 39°14' W 076°32'0 0.0
2018-Feb-13 03:29N 39°14' W 076°32'0 0.0
2018-Feb-13 02:59N 39°14' W 076°32'0 0.0
2018-Feb-13 02:29N 39°14' W 076°32'0 0.0
2018-Feb-13 01:59N 39°14' W 076°32'0 0.0
2018-Feb-13 01:29N 39°14' W 076°32'0 0.0
2018-Feb-13 00:59N 39°14' W 076°32'0 0.0
2018-Feb-13 00:29N 39°14' W 076°32'0 0.0
2018-Feb-12 23:59N 39°14' W 076°32'0 0.0
2018-Feb-12 23:29N 39°14' W 076°32'0 0.0
2018-Feb-12 22:59N 39°14' W 076°32'0 0.0
2018-Feb-12 22:29N 39°14' W 076°32'0 0.0
2018-Feb-12 21:59N 39°14' W 076°32'0 0.0
2018-Feb-12 21:29N 39°14' W 076°32'0 0.0
2018-Feb-12 20:59N 39°14' W 076°32'0 0.0
2018-Feb-12 20:29N 39°14' W 076°32'0 0.0
2018-Feb-12 19:59N 39°14' W 076°32'0 0.0
2018-Feb-12 19:29N 39°14' W 076°32'0 0.0
2018-Feb-12 18:59N 39°14' W 076°32'0 0.0
2018-Feb-12 18:30N 39°14' W 076°32'0 0.0
2018-Feb-12 18:00N 39°14' W 076°32'0 0.0
2018-Feb-12 17:30N 39°14' W 076°32'0 0.0
2018-Feb-12 17:00N 39°14' W 076°32'0 0.0
2018-Feb-12 16:30N 39°14' W 076°32'0 0.0
2018-Feb-12 16:00N 39°14' W 076°32'0 0.0
2018-Feb-12 15:30N 39°14' W 076°32'0 0.0
2018-Feb-12 15:00N 39°14' W 076°32'0 0.0
2018-Feb-12 14:30N 39°14' W 076°32'0 0.0
2018-Feb-12 14:00N 39°14' W 076°32'0 0.0
2018-Feb-12 13:30N 39°14' W 076°32'0 0.0
2018-Feb-12 13:00N 39°14' W 076°32'0 0.0
2018-Feb-12 12:30N 39°14' W 076°32'0 0.0
2018-Feb-12 12:00N 39°14' W 076°32'0 0.0
2018-Feb-12 11:30N 39°14' W 076°32'0 0.0
2018-Feb-12 11:00N 39°14' W 076°32'0 0.0
2018-Feb-12 10:30N 39°14' W 076°32'0 0.0
2018-Feb-12 10:00N 39°14' W 076°32'0 0.0
2018-Feb-12 09:30N 39°14' W 076°32'0 0.0
2018-Feb-12 09:00N 39°14' W 076°32'0 0.0
2018-Feb-12 08:30N 39°14' W 076°32'0 0.0
2018-Feb-12 08:00N 39°14' W 076°32'0 0.0
2018-Feb-12 07:30N 39°14' W 076°32'0 0.0
2018-Feb-12 07:00N 39°14' W 076°32'0 0.0
2018-Feb-12 06:30N 39°14' W 076°32'0 0.0
2018-Feb-12 06:00N 39°14' W 076°32'0 0.0
2018-Feb-12 05:30N 39°14' W 076°32'0 0.0
2018-Feb-12 05:00N 39°14' W 076°32'0 0.0
2018-Feb-12 04:30N 39°14' W 076°32'0 0.0
2018-Feb-12 04:00N 39°14' W 076°32'0 0.0
2018-Feb-12 03:30N 39°14' W 076°32'0 0.0
2018-Feb-12 03:00N 39°14' W 076°32'0 0.0
2018-Feb-12 02:30N 39°14' W 076°32'0 0.0
2018-Feb-12 02:00N 39°14' W 076°32'0 0.0
2018-Feb-12 01:30N 39°14' W 076°32'0 0.0
2018-Feb-12 01:00N 39°14' W 076°32'0 0.0
2018-Feb-12 00:30N 39°14' W 076°32'0 0.0
2018-Feb-12 00:00N 39°14' W 076°32'0 1.0
2018-Feb-11 23:31N 39°14' W 076°32'2 3.5
2018-Feb-11 23:01N 39°13' W 076°31'5 9.1
2018-Feb-11 22:30N 39°11' W 076°26'511.0
2018-Feb-11 22:00N 39°05' W 076°24'611.4
2018-Feb-11 21:31N 38°60' W 076°23'611.7
2018-Feb-11 21:01N 38°54' W 076°24'1 2.8
2018-Feb-11 20:29N 38°53' W 076°25'0 0.1
2018-Feb-11 19:59N 38°53' W 076°25'0 0.0
2018-Feb-11 19:29N 38°53' W 076°25'0 0.1
2018-Feb-11 19:00N 38°53' W 076°25'1 2.2
2018-Feb-11 18:30N 38°52' W 076°24'713.4
2018-Feb-11 18:00N 38°45' W 076°26'3617.1
2018-Feb-11 15:52N 38°10' W 076°14'5416.4
2018-Feb-11 12:36N 37°17' W 076°07'317.5
2018-Feb-11 12:26N 37°14' W 076°08'816.7
2018-Feb-11 11:56N 37°06' W 076°07'716.5
2018-Feb-11 11:28N 36°60' W 076°01'510.5
2018-Feb-11 11:00N 36°56' W 075°57'4 8.6
2018-Feb-11 10:30N 36°53' W 075°53'4 8.5
2018-Feb-11 10:00N 36°51' W 075°48'  

Dump ship's entire track history